createdAt,value
2017-11-14T00:00:28.019Z,47.08
2017-11-14T00:01:28.062Z,47.27
2017-11-14T00:02:49.122Z,47.66
2017-11-14T00:03:28.142Z,47.56
2017-11-14T00:04:28.182Z,47.46
2017-11-14T00:05:28.221Z,47.36
2017-11-14T00:06:28.265Z,47.66
2017-11-14T00:07:28.306Z,46.98
2017-11-14T00:08:49.366Z,46.89
2017-11-14T00:09:28.384Z,46.89
2017-11-14T00:10:28.426Z,46.59
2017-11-14T00:11:28.465Z,46.77
2017-11-14T00:12:28.509Z,46.50
2017-11-14T00:13:28.551Z,46.38
2017-11-14T00:14:49.615Z,46.86
2017-11-14T00:15:28.628Z,47.44
2017-11-14T00:16:28.676Z,47.63
2017-11-14T00:17:28.734Z,46.58
2017-11-14T00:18:28.750Z,46.86
2017-11-14T00:19:28.792Z,47.05
2017-11-14T00:20:49.854Z,47.34
2017-11-14T00:21:28.878Z,46.96
2017-11-14T00:22:28.915Z,46.77
2017-11-14T00:23:28.963Z,47.05
2017-11-14T00:24:28.998Z,47.63
2017-11-14T00:25:29.034Z,47.34
2017-11-14T00:26:50.101Z,47.72
2017-11-14T00:27:29.119Z,46.77
2017-11-14T00:28:29.158Z,47.63
2017-11-14T00:29:29.203Z,47.44
2017-11-14T00:30:29.237Z,47.32
2017-11-14T00:31:29.284Z,47.61
2017-11-14T00:32:50.358Z,47.32
2017-11-14T00:33:29.361Z,47.61
2017-11-14T00:34:29.403Z,46.84
2017-11-14T00:35:29.445Z,47.51
2017-11-14T00:36:29.487Z,47.80
2017-11-14T00:37:29.525Z,48.28
2017-11-14T00:38:50.590Z,47.32
2017-11-14T00:39:29.614Z,48.38
2017-11-14T00:40:29.646Z,48.18
2017-11-14T00:41:29.685Z,48.59
2017-11-14T00:42:29.725Z,48.28
2017-11-14T00:43:29.769Z,48.69
2017-11-14T00:44:50.829Z,48.11
2017-11-14T00:45:29.848Z,48.11
2017-11-14T00:46:29.887Z,48.11
2017-11-14T00:47:29.928Z,48.02
2017-11-14T00:48:29.973Z,48.30
2017-11-14T00:49:30.011Z,48.21
2017-11-14T00:50:51.077Z,47.63
2017-11-14T00:51:30.092Z,48.02
2017-11-14T00:52:30.145Z,46.96
2017-11-14T00:53:30.174Z,48.30
2017-11-14T00:54:30.212Z,47.92
2017-11-14T00:55:30.254Z,47.92
2017-11-14T00:56:51.322Z,47.15
2017-11-14T00:57:30.336Z,47.25
2017-11-14T00:58:30.374Z,47.34
2017-11-14T00:59:30.419Z,47.63
2017-11-14T01:00:30.462Z,47.72
2017-11-14T01:01:30.508Z,47.34
2017-11-14T01:02:51.563Z,47.63
2017-11-14T01:03:30.584Z,47.34
2017-11-14T01:04:30.625Z,47.53
2017-11-14T01:05:30.662Z,47.05
2017-11-14T01:06:30.702Z,46.86
2017-11-14T01:07:30.749Z,47.05
2017-11-14T01:08:51.808Z,46.96
2017-11-14T01:09:30.823Z,46.96
2017-11-14T01:10:30.866Z,46.86
2017-11-14T01:11:30.907Z,46.96
2017-11-14T01:12:30.946Z,47.05
2017-11-14T01:13:30.992Z,45.81
2017-11-14T01:14:52.053Z,46.09
2017-11-14T01:15:31.071Z,46.19
2017-11-14T01:16:31.110Z,45.81
2017-11-14T01:17:31.154Z,46.58
2017-11-14T01:18:31.190Z,46.77
2017-11-14T01:19:31.228Z,46.67
2017-11-14T01:20:52.293Z,46.58
2017-11-14T01:21:31.313Z,46.96
2017-11-14T01:22:31.353Z,47.92
2017-11-14T01:23:31.393Z,47.53
2017-11-14T01:24:31.429Z,47.34
2017-11-14T01:25:31.474Z,47.44
2017-11-14T01:26:52.542Z,47.44
2017-11-14T01:27:31.554Z,47.34
2017-11-14T01:28:31.600Z,47.63
2017-11-14T01:29:31.636Z,47.82
2017-11-14T01:30:31.678Z,47.53
2017-11-14T01:31:31.723Z,46.96
2017-11-14T01:32:52.779Z,47.44
2017-11-14T01:33:31.802Z,47.34
2017-11-14T01:34:31.840Z,47.44
2017-11-14T01:35:31.877Z,47.34
2017-11-14T01:36:31.917Z,47.34
2017-11-14T01:37:31.965Z,47.44
2017-11-14T01:38:53.025Z,47.53
2017-11-14T01:39:32.046Z,47.53
2017-11-14T01:40:32.077Z,47.44
2017-11-14T01:41:32.119Z,47.63
2017-11-14T01:42:32.163Z,47.63
2017-11-14T01:43:32.196Z,47.63
2017-11-14T01:44:53.262Z,47.05
2017-11-14T01:45:32.279Z,47.44
2017-11-14T01:46:32.321Z,47.72
2017-11-14T01:47:32.364Z,47.63
2017-11-14T01:48:32.402Z,47.34
2017-11-14T01:49:32.445Z,47.34
2017-11-14T01:50:53.511Z,47.05
2017-11-14T01:51:32.522Z,46.77
2017-11-14T01:52:32.561Z,46.67
2017-11-14T01:53:32.607Z,47.05
2017-11-14T01:54:32.656Z,46.67
2017-11-14T01:55:32.685Z,46.58
2017-11-14T01:56:53.748Z,45.71
2017-11-14T01:57:32.765Z,46.48
2017-11-14T01:58:32.804Z,46.19
2017-11-14T01:59:32.848Z,45.81
2017-11-14T02:00:32.892Z,46.38
2017-11-14T02:01:32.925Z,45.90
2017-11-14T02:02:53.990Z,46.19
2017-11-14T02:03:33.007Z,46.17
2017-11-14T02:04:33.054Z,46.84
2017-11-14T02:05:33.096Z,46.36
2017-11-14T02:06:33.134Z,46.74
2017-11-14T02:07:33.175Z,46.65
2017-11-14T02:08:54.236Z,46.74
2017-11-14T02:09:33.252Z,46.65
2017-11-14T02:10:33.294Z,46.45
2017-11-14T02:11:33.336Z,47.61
2017-11-14T02:12:33.379Z,46.74
2017-11-14T02:13:33.415Z,46.45
2017-11-14T02:14:54.480Z,47.41
2017-11-14T02:15:33.496Z,46.74
2017-11-14T02:16:33.539Z,47.41
2017-11-14T02:17:33.580Z,47.51
2017-11-14T02:18:33.617Z,47.41
2017-11-14T02:19:33.661Z,47.03
2017-11-14T02:20:54.724Z,47.51
2017-11-14T02:21:33.742Z,47.61
2017-11-14T02:22:33.781Z,47.61
2017-11-14T02:23:33.823Z,47.71
2017-11-14T02:24:33.865Z,47.41
2017-11-14T02:25:33.902Z,47.63
2017-11-14T02:26:54.967Z,47.44
2017-11-14T02:27:33.995Z,47.44
2017-11-14T02:28:34.022Z,47.72
2017-11-14T02:29:34.068Z,47.53
2017-11-14T02:30:34.106Z,47.53
2017-11-14T02:31:34.145Z,46.86
2017-11-14T02:32:55.210Z,46.77
2017-11-14T02:33:34.226Z,46.77
2017-11-14T02:34:34.263Z,46.77
2017-11-14T02:35:34.317Z,46.58
2017-11-14T02:36:34.348Z,46.67
2017-11-14T02:37:34.384Z,46.50
2017-11-14T02:38:55.453Z,46.31
2017-11-14T02:39:34.471Z,45.92
2017-11-14T02:40:34.510Z,45.92
2017-11-14T02:41:34.548Z,46.21
2017-11-14T02:42:34.590Z,45.73
2017-11-14T02:43:34.629Z,45.54
2017-11-14T02:44:55.693Z,45.54
2017-11-14T02:45:34.712Z,45.54
2017-11-14T02:46:34.751Z,45.83
2017-11-14T02:47:34.788Z,45.45
2017-11-14T02:48:34.831Z,45.15
2017-11-14T02:49:34.879Z,44.96
2017-11-14T02:50:55.937Z,45.25
2017-11-14T02:51:34.954Z,45.08
2017-11-14T02:52:34.995Z,45.25
2017-11-14T02:53:35.044Z,45.35
2017-11-14T02:54:35.072Z,44.68
2017-11-14T02:55:35.122Z,45.54
2017-11-14T02:56:56.181Z,45.15
2017-11-14T02:57:35.200Z,44.96
2017-11-14T02:58:35.235Z,44.48
2017-11-14T02:59:35.282Z,44.58
2017-11-14T03:00:35.323Z,45.54
2017-11-14T03:01:35.366Z,44.48
2017-11-14T03:02:56.423Z,44.20
2017-11-14T03:03:35.447Z,44.20
2017-11-14T03:04:35.485Z,44.48
2017-11-14T03:05:35.531Z,44.48
2017-11-14T03:06:35.565Z,44.48
2017-11-14T03:07:35.611Z,44.37
2017-11-14T03:08:56.677Z,44.27
2017-11-14T03:09:35.691Z,44.87
2017-11-14T03:10:35.727Z,44.56
2017-11-14T03:11:35.773Z,44.75
2017-11-14T03:12:35.812Z,45.04
2017-11-14T03:13:35.846Z,44.94
2017-11-14T03:14:56.916Z,44.94
2017-11-14T03:15:35.934Z,45.71
2017-11-14T03:16:35.970Z,45.90
2017-11-14T03:17:36.015Z,45.90
2017-11-14T03:18:36.055Z,46.09
2017-11-14T03:19:36.095Z,46.09
2017-11-14T03:20:57.162Z,45.81
2017-11-14T03:21:36.179Z,45.81
2017-11-14T03:22:36.219Z,46.45
2017-11-14T03:23:36.288Z,46.55
2017-11-14T03:24:36.297Z,46.65
2017-11-14T03:25:36.338Z,47.03
2017-11-14T03:26:57.405Z,47.03
2017-11-14T03:27:36.419Z,47.51
2017-11-14T03:28:36.460Z,47.71
2017-11-14T03:29:36.499Z,46.74
2017-11-14T03:30:36.545Z,46.55
2017-11-14T03:31:36.583Z,46.84
2017-11-14T03:32:57.646Z,46.96
2017-11-14T03:33:36.663Z,46.77
2017-11-14T03:34:36.706Z,46.86
2017-11-14T03:35:36.744Z,46.86
2017-11-14T03:36:36.789Z,46.19
2017-11-14T03:37:36.832Z,46.77
2017-11-14T03:38:57.893Z,46.28
2017-11-14T03:39:36.908Z,45.92
2017-11-14T03:40:36.951Z,46.09
2017-11-14T03:41:36.994Z,45.92
2017-11-14T03:42:37.032Z,46.02
2017-11-14T03:43:37.074Z,45.64
2017-11-14T03:44:58.134Z,45.83
2017-11-14T03:45:37.152Z,45.35
2017-11-14T03:46:37.200Z,45.06
2017-11-14T03:47:37.235Z,45.06
2017-11-14T03:48:37.273Z,45.54
2017-11-14T03:49:37.321Z,44.68
2017-11-14T03:50:58.381Z,44.77
2017-11-14T03:51:37.393Z,44.87
2017-11-14T03:52:37.437Z,44.89
2017-11-14T03:53:37.480Z,44.87
2017-11-14T03:54:37.522Z,44.70
2017-11-14T03:55:37.562Z,44.60
2017-11-14T03:56:58.620Z,44.51
2017-11-14T03:57:37.639Z,44.38
2017-11-14T03:58:37.682Z,44.60
2017-11-14T03:59:37.724Z,44.60
2017-11-14T04:00:37.763Z,44.31
2017-11-14T04:01:37.806Z,44.31
2017-11-14T04:02:58.866Z,44.31
2017-11-14T04:03:37.883Z,44.41
2017-11-14T04:04:37.926Z,44.51
2017-11-14T04:05:37.972Z,44.22
2017-11-14T04:06:38.006Z,44.02
2017-11-14T04:07:38.056Z,44.22
2017-11-14T04:08:59.117Z,43.91
2017-11-14T04:09:38.132Z,44.20
2017-11-14T04:10:38.239Z,44.20
2017-11-14T04:11:38.215Z,44.02
2017-11-14T04:12:38.260Z,43.91
2017-11-14T04:13:38.300Z,43.91
2017-11-14T04:14:59.354Z,44.00
2017-11-14T04:15:38.373Z,43.91
2017-11-14T04:16:38.420Z,44.00
2017-11-14T04:17:38.460Z,43.91
2017-11-14T04:18:38.500Z,44.10
2017-11-14T04:19:38.544Z,43.91
2017-11-14T04:20:59.608Z,44.10
2017-11-14T04:21:38.620Z,44.20
2017-11-14T04:22:38.660Z,44.29
2017-11-14T04:23:38.703Z,44.29
2017-11-14T04:24:38.751Z,44.20
2017-11-14T04:25:38.785Z,44.96
2017-11-14T04:26:59.852Z,45.06
2017-11-14T04:27:38.867Z,45.04
2017-11-14T04:28:38.909Z,45.32
2017-11-14T04:29:38.948Z,45.23
2017-11-14T04:30:38.993Z,45.61
2017-11-14T04:31:39.030Z,45.90
2017-11-14T04:33:00.095Z,46.00
2017-11-14T04:33:39.110Z,45.71
2017-11-14T04:34:39.152Z,46.09
2017-11-14T04:35:39.195Z,45.81
2017-11-14T04:36:39.237Z,46.00
2017-11-14T04:37:39.278Z,45.52
2017-11-14T04:39:00.344Z,45.81
2017-11-14T04:39:39.367Z,45.81
2017-11-14T04:40:39.397Z,45.61
2017-11-14T04:41:39.440Z,46.00
2017-11-14T04:42:39.482Z,45.61
2017-11-14T04:43:39.520Z,45.64
2017-11-14T04:45:00.589Z,45.54
2017-11-14T04:45:39.613Z,45.83
2017-11-14T04:46:39.646Z,45.92
2017-11-14T04:47:39.683Z,45.25
2017-11-14T04:48:39.737Z,45.35
2017-11-14T04:49:39.765Z,45.15
2017-11-14T04:51:00.831Z,44.77
2017-11-14T04:51:39.848Z,45.06
2017-11-14T04:52:39.894Z,44.68
2017-11-14T04:53:39.925Z,44.58
2017-11-14T04:54:39.970Z,44.48
2017-11-14T04:55:40.011Z,44.48
2017-11-14T04:57:01.076Z,44.48
2017-11-14T04:57:40.099Z,44.48
2017-11-14T04:58:40.135Z,44.70
2017-11-14T04:59:40.177Z,44.20
2017-11-14T05:00:40.211Z,44.38
2017-11-14T05:01:40.258Z,44.41
2017-11-14T05:03:01.318Z,44.22
2017-11-14T05:03:40.344Z,44.12
2017-11-14T05:04:40.380Z,43.93
2017-11-14T05:05:40.424Z,44.12
2017-11-14T05:06:40.464Z,44.22
2017-11-14T05:07:40.498Z,44.12
2017-11-14T05:09:01.572Z,43.93
2017-11-14T05:09:40.589Z,43.93
2017-11-14T05:10:40.624Z,44.10
2017-11-14T05:11:40.667Z,44.22
2017-11-14T05:12:40.703Z,44.20
2017-11-14T05:13:40.747Z,44.12
2017-11-14T05:15:01.807Z,43.81
2017-11-14T05:15:40.825Z,44.22
2017-11-14T05:16:40.875Z,44.00
2017-11-14T05:17:40.913Z,44.10
2017-11-14T05:18:40.957Z,44.10
2017-11-14T05:19:40.996Z,43.91
2017-11-14T05:21:02.060Z,44.00
2017-11-14T05:21:41.071Z,44.10
2017-11-14T05:22:41.113Z,44.38
2017-11-14T05:23:41.157Z,44.29
2017-11-14T05:24:41.194Z,44.10
2017-11-14T05:25:41.238Z,44.00
2017-11-14T05:27:02.304Z,44.20
2017-11-14T05:27:41.326Z,44.00
2017-11-14T05:28:41.365Z,44.20
2017-11-14T05:29:41.407Z,44.20
2017-11-14T05:30:41.443Z,44.00
2017-11-14T05:31:41.485Z,44.00
2017-11-14T05:33:02.546Z,44.38
2017-11-14T05:33:41.565Z,44.58
2017-11-14T05:34:41.650Z,44.87
2017-11-14T05:35:41.651Z,44.84
2017-11-14T05:36:41.697Z,45.32
2017-11-14T05:37:41.730Z,45.23
2017-11-14T05:39:02.792Z,45.04
2017-11-14T05:39:41.808Z,45.14
2017-11-14T05:40:41.856Z,45.14
2017-11-14T05:41:41.896Z,45.90
2017-11-14T05:42:41.936Z,46.09
2017-11-14T05:43:42.103Z,45.90
2017-11-14T05:45:03.040Z,45.71
2017-11-14T05:45:42.064Z,46.00
2017-11-14T05:46:42.096Z,45.83
2017-11-14T05:47:42.140Z,46.02
2017-11-14T05:48:42.237Z,45.52
2017-11-14T05:49:42.228Z,45.25
2017-11-14T05:51:03.279Z,45.54
2017-11-14T05:51:42.304Z,45.06
2017-11-14T05:52:42.341Z,45.15
2017-11-14T05:53:42.385Z,45.15
2017-11-14T05:54:42.425Z,44.68
2017-11-14T05:55:42.463Z,44.96
2017-11-14T05:57:03.540Z,45.45
2017-11-14T05:57:42.546Z,44.96
2017-11-14T05:58:42.591Z,45.06
2017-11-14T05:59:42.631Z,44.68
2017-11-14T06:00:42.667Z,44.20
2017-11-14T06:01:42.713Z,44.29
2017-11-14T06:03:03.776Z,44.29
2017-11-14T06:03:42.791Z,44.29
2017-11-14T06:04:42.845Z,44.38
2017-11-14T06:05:42.879Z,44.02
2017-11-14T06:06:42.921Z,44.12
2017-11-14T06:07:42.955Z,44.00
2017-11-14T06:09:04.022Z,43.93
2017-11-14T06:09:43.052Z,44.02
2017-11-14T06:10:43.078Z,44.02
2017-11-14T06:11:43.116Z,44.22
2017-11-14T06:12:43.161Z,44.02
2017-11-14T06:13:43.217Z,44.22
2017-11-14T06:15:04.262Z,44.22
2017-11-14T06:15:43.321Z,44.12
2017-11-14T06:16:43.325Z,44.12
2017-11-14T06:17:43.364Z,43.84
2017-11-14T06:18:43.617Z,41.62
2017-11-14T06:19:43.457Z,40.56
2017-11-14T06:21:04.511Z,40.28
2017-11-14T06:21:43.530Z,40.06
2017-11-14T06:22:43.575Z,40.06
2017-11-14T06:23:43.610Z,39.87
2017-11-14T06:24:43.651Z,39.97
2017-11-14T06:25:43.694Z,39.39
2017-11-14T06:27:04.756Z,39.78
2017-11-14T06:27:43.781Z,39.58
2017-11-14T06:28:43.818Z,39.76
2017-11-14T06:29:43.852Z,39.87
2017-11-14T06:30:43.898Z,40.05
2017-11-14T06:31:43.939Z,39.68
2017-11-14T06:33:05.005Z,39.95
2017-11-14T06:33:44.019Z,39.97
2017-11-14T06:34:44.058Z,39.58
2017-11-14T06:35:44.099Z,39.58
2017-11-14T06:36:44.141Z,39.87
2017-11-14T06:37:44.183Z,39.68
2017-11-14T06:39:05.247Z,39.49
2017-11-14T06:39:44.263Z,39.58
2017-11-14T06:40:44.310Z,39.39
2017-11-14T06:41:44.351Z,39.29
2017-11-14T06:42:44.388Z,39.22
2017-11-14T06:43:44.434Z,38.93
2017-11-14T06:45:05.500Z,39.31
2017-11-14T06:45:44.509Z,38.93
2017-11-14T06:46:44.556Z,38.84
2017-11-14T06:47:44.594Z,38.54
2017-11-14T06:48:44.626Z,37.68
2017-11-14T06:49:44.675Z,36.82
2017-11-14T06:51:05.735Z,37.68
2017-11-14T06:51:44.750Z,38.26
2017-11-14T06:52:44.794Z,38.18
2017-11-14T06:53:44.837Z,38.66
2017-11-14T06:54:44.880Z,38.95
2017-11-14T06:55:44.921Z,38.95
2017-11-14T06:57:05.993Z,38.76
2017-11-14T06:57:45.009Z,38.68
2017-11-14T06:58:45.043Z,39.06
2017-11-14T06:59:45.083Z,38.68
2017-11-14T07:00:45.128Z,38.39
2017-11-14T07:01:45.172Z,38.29
2017-11-14T07:03:06.235Z,38.20
2017-11-14T07:03:45.245Z,38.51
2017-11-14T07:04:45.290Z,38.79
2017-11-14T07:05:45.332Z,39.28
2017-11-14T07:06:45.391Z,38.89
2017-11-14T07:07:45.423Z,39.37
2017-11-14T07:09:06.498Z,39.28
2017-11-14T07:09:45.562Z,39.28
2017-11-14T07:10:45.595Z,39.66
2017-11-14T07:11:45.615Z,39.87
2017-11-14T07:12:45.635Z,39.68
2017-11-14T07:13:45.669Z,39.78
2017-11-14T07:15:06.729Z,39.68
2017-11-14T07:15:45.870Z,39.11
2017-11-14T07:16:45.796Z,39.68
2017-11-14T07:17:45.885Z,39.79
2017-11-14T07:18:45.872Z,39.22
2017-11-14T07:19:45.925Z,40.19
2017-11-14T07:21:06.990Z,39.89
2017-11-14T07:21:46.011Z,39.70
2017-11-14T07:22:46.040Z,39.89
2017-11-14T07:23:46.089Z,39.79
2017-11-14T07:24:46.184Z,39.61
2017-11-14T07:25:46.174Z,39.91
2017-11-14T07:27:07.237Z,39.34
2017-11-14T07:27:46.262Z,39.91
2017-11-14T07:28:46.296Z,39.91
2017-11-14T07:29:46.474Z,39.72
2017-11-14T07:30:46.404Z,39.82
2017-11-14T07:31:46.432Z,39.72
2017-11-14T07:33:07.494Z,39.82
2017-11-14T07:33:46.567Z,39.62
2017-11-14T07:34:46.613Z,39.82
2017-11-14T07:35:46.600Z,39.34
2017-11-14T07:36:46.678Z,39.82
2017-11-14T07:37:46.688Z,39.91
2017-11-14T07:39:07.808Z,39.84
2017-11-14T07:39:46.776Z,39.74
2017-11-14T07:40:47.041Z,39.36
2017-11-14T07:41:46.877Z,39.84
2017-11-14T07:42:46.977Z,40.03
2017-11-14T07:43:46.946Z,40.03
2017-11-14T07:45:08.014Z,40.32
2017-11-14T07:45:47.125Z,40.32
2017-11-14T07:46:47.084Z,40.42
2017-11-14T07:47:47.105Z,40.32
2017-11-14T07:48:47.167Z,40.03
2017-11-14T07:49:47.200Z,40.03
2017-11-14T07:51:08.268Z,40.22
2017-11-14T07:51:47.291Z,40.32
2017-11-14T07:52:47.343Z,40.34
2017-11-14T07:53:47.371Z,40.05
2017-11-14T07:54:47.410Z,40.05
2017-11-14T07:55:47.564Z,40.05
2017-11-14T07:57:08.527Z,40.05
2017-11-14T07:57:47.546Z,40.24
2017-11-14T07:58:47.585Z,40.15
2017-11-14T07:59:47.642Z,40.24
2017-11-14T08:00:47.685Z,40.15
2017-11-14T08:01:47.757Z,40.24
2017-11-14T08:03:08.784Z,40.34
2017-11-14T08:03:47.804Z,40.34
2017-11-14T08:04:47.858Z,40.24
2017-11-14T08:05:47.895Z,39.57
2017-11-14T08:06:47.937Z,39.97
2017-11-14T08:07:47.984Z,39.69
2017-11-14T08:09:09.048Z,39.49
2017-11-14T08:09:48.065Z,39.95
2017-11-14T08:10:48.122Z,40.26
2017-11-14T08:11:48.153Z,40.17
2017-11-14T08:12:48.201Z,40.36
2017-11-14T08:13:48.268Z,39.97
2017-11-14T08:15:09.320Z,39.59
2017-11-14T08:15:48.331Z,39.87
2017-11-14T08:16:48.377Z,39.29
2017-11-14T08:17:48.419Z,38.91
2017-11-14T08:18:48.466Z,39.69
2017-11-14T08:19:48.504Z,39.87
2017-11-14T08:21:09.577Z,40.17
2017-11-14T08:21:48.590Z,40.26
2017-11-14T08:22:48.642Z,39.97
2017-11-14T08:23:48.700Z,40.26
2017-11-14T08:24:48.734Z,40.07
2017-11-14T08:25:48.775Z,40.55
2017-11-14T08:27:09.849Z,39.87
2017-11-14T08:27:48.868Z,40.17
2017-11-14T08:28:48.902Z,40.36
2017-11-14T08:29:51.073Z,40.26
2017-11-14T08:30:48.993Z,40.17
2017-11-14T08:31:49.045Z,40.26
2017-11-14T08:33:10.109Z,39.20
2017-11-14T08:33:49.127Z,39.11
2017-11-14T08:34:49.173Z,39.59
2017-11-14T08:35:49.215Z,39.69
2017-11-14T08:36:49.320Z,40.36
2017-11-14T08:37:49.301Z,40.36
2017-11-14T08:39:10.380Z,40.07
2017-11-14T08:39:49.390Z,40.26
2017-11-14T08:40:49.435Z,40.07
2017-11-14T08:41:49.481Z,39.97
2017-11-14T08:42:49.521Z,40.07
2017-11-14T08:43:49.573Z,40.45
2017-11-14T08:45:10.686Z,39.87
2017-11-14T08:45:49.662Z,38.91
2017-11-14T08:46:49.698Z,38.71
2017-11-14T08:47:49.752Z,38.81
2017-11-14T08:48:49.807Z,39.59
2017-11-14T08:49:49.833Z,39.29
2017-11-14T08:51:10.902Z,39.39
2017-11-14T08:51:49.926Z,39.29
2017-11-14T08:52:49.964Z,39.20
2017-11-14T08:53:50.012Z,39.29
2017-11-14T08:54:50.097Z,40.07
2017-11-14T08:55:50.098Z,39.39
2017-11-14T08:57:11.166Z,39.20
2017-11-14T08:57:50.187Z,39.29
2017-11-14T08:58:50.233Z,39.20
2017-11-14T08:59:50.282Z,39.59
2017-11-14T09:00:50.332Z,39.49
2017-11-14T09:01:50.423Z,39.87
2017-11-14T09:03:11.463Z,39.87
2017-11-14T09:03:50.483Z,39.87
2017-11-14T09:04:50.507Z,39.97
2017-11-14T09:05:50.637Z,39.97
2017-11-14T09:06:50.605Z,39.80
2017-11-14T09:07:50.632Z,39.59
2017-11-14T09:09:11.712Z,39.39
2017-11-14T09:09:50.814Z,39.29
2017-11-14T09:10:50.777Z,39.78
2017-11-14T09:11:50.831Z,39.11
2017-11-14T09:12:50.869Z,39.61
2017-11-14T09:13:50.903Z,39.49
2017-11-14T09:15:11.980Z,39.32
2017-11-14T09:15:51.004Z,39.70
2017-11-14T09:16:51.053Z,39.41
2017-11-14T09:17:51.082Z,39.12
2017-11-14T09:18:51.128Z,39.20
2017-11-14T09:19:51.182Z,39.03
2017-11-14T09:21:12.238Z,38.71
2017-11-14T09:21:51.277Z,38.74
2017-11-14T09:22:51.318Z,39.01
2017-11-14T09:23:51.363Z,38.64
2017-11-14T09:24:51.398Z,39.03
2017-11-14T09:25:51.437Z,38.93
2017-11-14T09:27:12.501Z,38.81
2017-11-14T09:27:51.532Z,39.01
2017-11-14T09:28:51.567Z,39.12
2017-11-14T09:29:51.613Z,39.32
2017-11-14T09:30:52.584Z,39.12
2017-11-14T09:31:52.848Z,39.22
2017-11-14T09:33:12.775Z,39.22
2017-11-14T09:33:51.814Z,39.12
2017-11-14T09:34:51.860Z,39.22
2017-11-14T09:35:51.902Z,39.61
2017-11-14T09:36:51.942Z,39.51
2017-11-14T09:37:51.999Z,39.12
2017-11-14T09:39:13.062Z,39.32
2017-11-14T09:39:52.065Z,39.41
2017-11-14T09:40:52.125Z,39.32
2017-11-14T09:41:52.171Z,38.74
2017-11-14T09:42:52.205Z,38.56
2017-11-14T09:43:52.396Z,38.83
2017-11-14T09:45:13.323Z,38.93
2017-11-14T09:45:52.331Z,38.54
2017-11-14T09:46:52.386Z,38.54
2017-11-14T09:47:52.421Z,38.93
2017-11-14T09:48:52.467Z,38.25
2017-11-14T09:49:53.103Z,38.64
2017-11-14T09:51:13.596Z,38.74
2017-11-14T09:51:52.778Z,38.93
2017-11-14T09:52:52.648Z,39.22
2017-11-14T09:53:52.706Z,39.12
2017-11-14T09:54:52.752Z,38.83
2017-11-14T09:55:52.808Z,39.14
2017-11-14T09:57:13.859Z,38.85
2017-11-14T09:57:52.885Z,38.66
2017-11-14T09:58:54.159Z,38.66
2017-11-14T09:59:54.745Z,38.56
2017-11-14T10:00:53.072Z,38.85
2017-11-14T10:01:53.054Z,38.76
2017-11-14T10:03:14.137Z,38.76
2017-11-14T10:03:53.149Z,38.85
2017-11-14T10:04:53.197Z,38.76
2017-11-14T10:05:53.248Z,38.85
2017-11-14T10:06:53.281Z,39.14
2017-11-14T10:07:53.372Z,38.76
2017-11-14T10:09:14.397Z,38.85
2017-11-14T10:09:53.414Z,38.76
2017-11-14T10:10:53.470Z,38.76
2017-11-14T10:11:53.531Z,38.76
2017-11-14T10:12:56.969Z,38.85
2017-11-14T10:13:53.617Z,39.04
2017-11-14T10:15:14.705Z,39.24
2017-11-14T10:15:53.681Z,38.85
2017-11-14T10:16:53.742Z,38.56
2017-11-14T10:17:53.778Z,38.76
2017-11-14T10:18:55.629Z,38.85
2017-11-14T10:19:53.867Z,38.95
2017-11-14T10:21:14.935Z,38.37
2017-11-14T10:21:53.974Z,38.76
2017-11-14T10:22:54.982Z,38.85
2017-11-14T10:23:57.180Z,38.66
2017-11-14T10:24:54.090Z,39.04
2017-11-14T10:25:54.160Z,39.24
2017-11-14T10:27:15.209Z,38.66
2017-11-14T10:27:54.225Z,38.95
2017-11-14T10:28:54.270Z,38.76
2017-11-14T10:29:54.325Z,38.78
2017-11-14T10:30:54.364Z,38.66
2017-11-14T10:31:54.408Z,39.04
2017-11-14T10:33:15.482Z,38.46
2017-11-14T10:33:54.507Z,38.95
2017-11-14T10:34:54.545Z,38.76
2017-11-14T10:35:54.591Z,38.85
2017-11-14T10:36:54.689Z,37.79
2017-11-14T10:37:54.703Z,38.58
2017-11-14T10:39:15.760Z,38.37
2017-11-14T10:39:54.772Z,38.85
2017-11-14T10:40:54.834Z,38.85
2017-11-14T10:41:54.873Z,38.76
2017-11-14T10:42:54.915Z,39.24
2017-11-14T10:43:54.999Z,38.28
2017-11-14T10:45:16.053Z,37.98
2017-11-14T10:45:55.050Z,38.46
2017-11-14T10:46:55.115Z,38.66
2017-11-14T10:47:55.139Z,38.66
2017-11-14T10:48:55.184Z,38.85
2017-11-14T10:49:55.236Z,38.37
2017-11-14T10:51:16.294Z,39.04
2017-11-14T10:51:55.316Z,38.76
2017-11-14T10:52:56.810Z,38.95
2017-11-14T10:53:55.417Z,38.68
2017-11-14T10:54:55.454Z,39.06
2017-11-14T10:55:55.512Z,38.85
2017-11-14T10:57:16.576Z,38.95
2017-11-14T10:57:55.591Z,38.85
2017-11-14T10:58:55.648Z,39.16
2017-11-14T10:59:55.691Z,39.06
2017-11-14T11:00:55.723Z,39.06
2017-11-14T11:01:55.805Z,38.58
2017-11-14T11:03:16.883Z,39.16
2017-11-14T11:03:55.861Z,38.87
2017-11-14T11:04:55.911Z,38.58
2017-11-14T11:05:55.950Z,38.68
2017-11-14T11:06:55.996Z,38.78
2017-11-14T11:07:56.649Z,38.97
2017-11-14T11:09:17.124Z,39.16
2017-11-14T11:09:56.193Z,39.55
2017-11-14T11:10:56.227Z,38.87
2017-11-14T11:11:56.237Z,39.45
2017-11-14T11:12:56.280Z,39.45
2017-11-14T11:13:56.328Z,39.16
2017-11-14T11:15:19.062Z,39.64
2017-11-14T11:15:56.429Z,39.26
2017-11-14T11:16:56.464Z,39.36
2017-11-14T11:17:56.503Z,39.55
2017-11-14T11:18:56.546Z,39.16
2017-11-14T11:19:56.597Z,39.36
2017-11-14T11:21:17.670Z,39.36
2017-11-14T11:21:56.697Z,39.26
2017-11-14T11:22:56.738Z,39.16
2017-11-14T11:23:56.790Z,38.58
2017-11-14T11:24:56.858Z,39.16
2017-11-14T11:25:56.870Z,38.78
2017-11-14T11:27:20.073Z,38.68
2017-11-14T11:27:56.954Z,38.87
2017-11-14T11:28:57.009Z,38.68
2017-11-14T11:29:57.061Z,38.87
2017-11-14T11:30:57.101Z,38.78
2017-11-14T11:31:57.155Z,38.21
2017-11-14T11:33:18.209Z,38.79
2017-11-14T11:33:57.236Z,38.48
2017-11-14T11:34:57.442Z,38.39
2017-11-14T11:35:57.464Z,38.39
2017-11-14T11:36:57.565Z,38.68
2017-11-14T11:37:58.719Z,38.58
2017-11-14T11:39:19.818Z,38.48
2017-11-14T11:39:57.700Z,38.31
2017-11-14T11:40:58.778Z,38.97
2017-11-14T11:41:57.839Z,38.50
2017-11-14T11:42:57.861Z,38.70
2017-11-14T11:43:57.894Z,38.39
2017-11-14T11:45:18.873Z,38.60
2017-11-14T11:45:57.988Z,38.20
2017-11-14T11:46:57.840Z,38.41
2017-11-14T11:47:58.087Z,38.60
2017-11-14T11:48:58.100Z,38.89
2017-11-14T11:49:57.964Z,38.41
2017-11-14T11:51:19.102Z,38.70
2017-11-14T11:51:58.051Z,38.12
2017-11-14T11:52:58.105Z,38.89
2017-11-14T11:53:58.151Z,38.79
2017-11-14T11:54:58.191Z,38.79
2017-11-14T11:55:58.236Z,38.60
2017-11-14T11:57:19.361Z,39.18
2017-11-14T11:57:58.341Z,38.79
2017-11-14T11:58:58.374Z,38.89
2017-11-14T11:59:58.436Z,39.09
2017-11-14T12:00:58.468Z,38.79
2017-11-14T12:01:58.525Z,38.99
2017-11-14T12:03:19.617Z,38.41
2017-11-14T12:03:58.605Z,38.70
2017-11-14T12:04:58.652Z,38.79
2017-11-14T12:05:58.719Z,38.70
2017-11-14T12:06:58.754Z,38.99
2017-11-14T12:07:58.790Z,38.70
2017-11-14T12:09:19.863Z,38.99
2017-11-14T12:09:58.870Z,38.60
2017-11-14T12:10:58.930Z,38.41
2017-11-14T12:11:58.967Z,38.89
2017-11-14T12:12:59.035Z,38.89
2017-11-14T12:13:59.101Z,38.60
2017-11-14T12:15:20.148Z,38.60
2017-11-14T12:15:59.179Z,38.60
2017-11-14T12:16:59.228Z,38.79
2017-11-14T12:17:59.397Z,38.89
2017-11-14T12:18:59.369Z,39.18
2017-11-14T12:20:00.424Z,38.89
2017-11-14T12:21:20.442Z,38.50
2017-11-14T12:21:59.460Z,38.70
2017-11-14T12:22:59.504Z,38.50
2017-11-14T12:23:59.521Z,39.09
2017-11-14T12:24:59.582Z,36.38
2017-11-14T12:25:59.632Z,32.89
2017-11-14T12:27:20.715Z,31.83
2017-11-14T12:27:59.853Z,30.47
2017-11-14T12:28:59.752Z,29.80
2017-11-14T12:29:59.815Z,29.49
2017-11-14T12:30:59.862Z,29.01
2017-11-14T12:31:59.894Z,28.61
2017-11-14T12:33:20.971Z,28.61
2017-11-14T12:33:59.980Z,28.78
2017-11-14T12:35:00.028Z,28.69
2017-11-14T12:36:00.078Z,28.69
2017-11-14T12:37:00.189Z,28.88
2017-11-14T12:38:00.207Z,28.69
2017-11-14T12:39:21.275Z,29.27
2017-11-14T12:40:00.276Z,30.14
2017-11-14T12:41:00.320Z,30.14
2017-11-14T12:42:00.346Z,30.91
2017-11-14T12:43:00.412Z,31.30
2017-11-14T12:44:00.456Z,31.30
2017-11-14T12:45:21.541Z,31.59
2017-11-14T12:46:00.545Z,31.59
2017-11-14T12:47:00.582Z,32.07
2017-11-14T12:48:00.623Z,31.88
2017-11-14T12:49:00.696Z,31.89
2017-11-14T12:50:00.696Z,32.38
2017-11-14T12:51:21.773Z,32.47
2017-11-14T12:52:00.794Z,32.57
2017-11-14T12:53:00.837Z,32.67